Terminal Aerodrome Forecast
Issued by NWS

Home | Current Version | Previous Version | Text Only | Print | Product List | Glossary On
Versions: 1 2 3 4 5 6 7 8 9 10 11 12 13 14 15 16 17
000
FTUS44 KBMX 261740
TAFTCL
TAF
KTCL 261740Z 2618/2718 20010KT P6SM SKC
     FM270100 19005KT P6SM SCT250
     FM271100 19003KT P6SM OVC025
     FM271500 21009KT P6SM OVC025=

USA.gov is the U.S. government's official web portal to all federal, state and local government web resources and services.